Map

Track Data

SID SEASON NUMBER BASIN SUBBASIN NAME ISO_TIME NATURE LAT LON WMO_WIND WMO_PRES WMO_AGENCY TRACK_TYPE DIST2LAND LANDFALL IFLAG USA_AGENCY USA_ATCF_ID USA_LAT USA_LON USA_RECORD USA_STATUS USA_WIND USA_PRES USA_SSHS USA_R34_NE USA_R34_SE USA_R34_SW USA_R34_NW USA_R50_NE USA_R50_SE USA_R50_SW USA_R50_NW USA_R64_NE USA_R64_SE USA_R64_SW USA_R64_NW USA_POCI USA_ROCI USA_RMW USA_EYE TOKYO_LAT TOKYO_LON TOKYO_GRADE TOKYO_WIND TOKYO_PRES TOKYO_R50_DIR TOKYO_R50_LONG TOKYO_R50_SHORT TOKYO_R30_DIR TOKYO_R30_LONG TOKYO_R30_SHORT TOKYO_LAND CMA_LAT CMA_LON CMA_CAT CMA_WIND CMA_PRES HKO_LAT HKO_LON HKO_CAT HKO_WIND HKO_PRES NEWDELHI_LAT NEWDELHI_LON NEWDELHI_GRADE NEWDELHI_WIND NEWDELHI_PRES NEWDELHI_CI NEWDELHI_DP NEWDELHI_POCI REUNION_LAT REUNION_LON REUNION_TYPE REUNION_WIND REUNION_PRES REUNION_TNUM REUNION_CI REUNION_RMW REUNION_R34_NE REUNION_R34_SE REUNION_R34_SW REUNION_R34_NW REUNION_R50_NE REUNION_R50_SE REUNION_R50_SW REUNION_R50_NW REUNION_R64_NE REUNION_R64_SE REUNION_R64_SW REUNION_R64_NW BOM_LAT BOM_LON BOM_TYPE BOM_WIND BOM_PRES BOM_TNUM BOM_CI BOM_RMW BOM_R34_NE BOM_R34_SE BOM_R34_SW BOM_R34_NW BOM_R50_NE BOM_R50_SE BOM_R50_SW BOM_R50_NW BOM_R64_NE BOM_R64_SE BOM_R64_SW BOM_R64_NW BOM_ROCI BOM_POCI BOM_EYE BOM_POS_METHOD BOM_PRES_METHOD NADI_LAT NADI_LON NADI_CAT NADI_WIND NADI_PRES WELLINGTON_LAT WELLINGTON_LON WELLINGTON_WIND WELLINGTON_PRES DS824_LAT DS824_LON DS824_STAGE DS824_WIND DS824_PRES TD9636_LAT TD9636_LON TD9636_STAGE TD9636_WIND TD9636_PRES TD9635_LAT TD9635_LON TD9635_WIND TD9635_PRES TD9635_ROCI NEUMANN_LAT NEUMANN_LON NEUMANN_CLASS NEUMANN_WIND NEUMANN_PRES MLC_LAT MLC_LON MLC_CLASS MLC_WIND MLC_PRES USA_GUST BOM_GUST BOM_GUST_PER REUNION_GUST REUNION_GUST_PER USA_SEAHGT USA_SEARAD_NE USA_SEARAD_SE USA_SEARAD_SW USA_SEARAD_NW STORM_SPEED STORM_DIR
1866242N14307 1866 18 NA NA NOT_NAMED 1866-08-29 12:00:00 TS 14.4000 -53.5000 main 913 881 _____________O -1 14.4000 -53.5000 TD 30 12 306
1866242N14307 1866 18 NA NA NOT_NAMED 1866-08-29 15:00:00 TS 14.7502 -53.9997 main 887 859 _____________P -1 14.7502 -53.9997 TD 30 12 306
1866242N14307 1866 18 NA NA NOT_NAMED 1866-08-29 18:00:00 TS 15.1000 -54.5000 main 859 836 _____________O -1 15.1000 -54.5000 TD 30 12 306
1866242N14307 1866 18 NA NA NOT_NAMED 1866-08-29 21:00:00 TS 15.4499 -55.0002 main 836 824 _____________P -1 15.4499 -55.0002 TD 30 12 306
1866242N14307 1866 18 NA NA NOT_NAMED 1866-08-30 00:00:00 TS 15.8000 -55.5000 main 824 811 _____________O -1 15.8000 -55.5000 TD 30 12 306
1866242N14307 1866 18 NA NA NOT_NAMED 1866-08-30 03:00:00 TS 16.1499 -56.0002 main 811 807 _____________P -1 16.1499 -56.0002 TD 30 12 306
1866242N14307 1866 18 NA NA NOT_NAMED 1866-08-30 06:00:00 TS 16.5000 -56.5000 main 811 804 _____________O -1 16.5000 -56.5000 TD 30 12 306
1866242N14307 1866 18 NA NA NOT_NAMED 1866-08-30 09:00:00 TS 16.8499 -57.0002 main 808 808 _____________P -1 16.8499 -57.0002 TD 32 12 306
1866242N14307 1866 18 NA NA NOT_NAMED 1866-08-30 12:00:00 TS 17.2000 -57.5000 main 819 808 _____________O -1 17.2000 -57.5000 TS 35 12 306
1866242N14307 1866 18 NA NA NOT_NAMED 1866-08-30 15:00:00 TS 17.5499 -58.0002 main 808 751 _____________P -1 17.5499 -58.0002 TS 35 12 306
1866242N14307 1866 18 NA NA NOT_NAMED 1866-08-30 18:00:00 TS 17.9000 -58.5000 main 751 697 _____________O -1 17.9000 -58.5000 TS 35 12 306
1866242N14307 1866 18 NA NA NOT_NAMED 1866-08-30 21:00:00 TS 18.2499 -59.0002 main 697 643 _____________P -1 18.2499 -59.0002 TS 35 12 306
1866242N14307 1866 18 NA NA NOT_NAMED 1866-08-31 00:00:00 TS 18.6000 -59.5000 main 643 592 _____________O -1 18.6000 -59.5000 TS 35 12 306
1866242N14307 1866 18 NA NA NOT_NAMED 1866-08-31 03:00:00 TS 18.9499 -60.0002 main 592 546 _____________P -1 18.9499 -60.0002 TS 35 12 307
1866242N14307 1866 18 NA NA NOT_NAMED 1866-08-31 06:00:00 TS 19.3000 -60.5000 main 546 501 _____________O -1 19.3000 -60.5000 TS 35 12 307
1866242N14307 1866 18 NA NA NOT_NAMED 1866-08-31 09:00:00 TS 19.6499 -61.0002 main 501 466 _____________P -1 19.6499 -61.0002 TS 37 12 307
1866242N14307 1866 18 NA NA NOT_NAMED 1866-08-31 12:00:00 TS 20.0000 -61.5000 main 466 433 _____________O -1 20.0000 -61.5000 TS 40 12 307
1866242N14307 1866 18 NA NA NOT_NAMED 1866-08-31 15:00:00 TS 20.3499 -62.0002 main 433 414 _____________P -1 20.3499 -62.0002 TS 40 12 307
1866242N14307 1866 18 NA NA NOT_NAMED 1866-08-31 18:00:00 TS 20.7000 -62.5000 main 414 398 _____________O -1 20.7000 -62.5000 TS 40 12 307
1866242N14307 1866 18 NA NA NOT_NAMED 1866-08-31 21:00:00 TS 21.0499 -63.0002 main 398 394 _____________P -1 21.0499 -63.0002 TS 40 12 307
1866242N14307 1866 18 NA NA NOT_NAMED 1866-09-01 00:00:00 TS 21.4000 -63.5000 main 400 395 _____________O -1 21.4000 -63.5000 TS 40 12 307
1866242N14307 1866 18 NA NA NOT_NAMED 1866-09-01 03:00:00 TS 21.7573 -64.0002 main 415 411 _____________P -1 21.7573 -64.0002 TS 42 12 307
1866242N14307 1866 18 NA NA NOT_NAMED 1866-09-01 06:00:00 TS 22.1000 -64.5000 main 429 426 _____________O -1 22.1000 -64.5000 TS 45 11 303
1866242N14307 1866 18 NA NA NOT_NAMED 1866-09-01 09:00:00 TS 22.3700 -65.0230 main 451 449 _____________P -1 22.3700 -65.0230 TS 45 11 303
1866242N14307 1866 18 NA NA NOT_NAMED 1866-09-01 12:00:00 TS 22.7000 -65.5000 main 481 481 _____________O -1 22.7000 -65.5000 TS 45 12 317
1866242N14307 1866 18 NA NA NOT_NAMED 1866-09-01 15:00:00 TS 23.2198 -65.8726 main 536 536 _____________P -1 23.2198 -65.8726 TS 45 13 330
1866242N14307 1866 18 NA NA NOT_NAMED 1866-09-01 18:00:00 TS 23.8000 -66.2000 main 596 596 _____________O -1 23.8000 -66.2000 TS 45 13 330
1866242N14307 1866 18 NA NA NOT_NAMED 1866-09-01 21:00:00 TS 24.3074 -66.5503 main 624 624 _____________P -1 24.3074 -66.5503 TS 47 12 327
1866242N14307 1866 18 NA NA NOT_NAMED 1866-09-02 00:00:00 TS 24.8000 -66.9000 main 662 662 _____________O -1 24.8000 -66.9000 TS 50 12 327
1866242N14307 1866 18 NA NA NOT_NAMED 1866-09-02 03:00:00 TS 25.2999 -67.2503 main 694 694 _____________P -1 25.2999 -67.2503 TS 50 12 328
1866242N14307 1866 18 NA NA NOT_NAMED 1866-09-02 06:00:00 TS 25.8000 -67.6000 main 735 735 _____________O -1 25.8000 -67.6000 TS 50 12 326
1866242N14307 1866 18 NA NA NOT_NAMED 1866-09-02 09:00:00 TS 26.2851 -67.9874 main 763 763 _____________P -1 26.2851 -67.9874 TS 52 12 328
1866242N14307 1866 18 NA NA NOT_NAMED 1866-09-02 12:00:00 TS 26.8000 -68.3000 main 786 786 _____________O -1 26.8000 -68.3000 TS 55 12 340
1866242N14307 1866 18 NA NA NOT_NAMED 1866-09-02 15:00:00 TS 27.3924 -68.4454 main 834 829 _____________P -1 27.3924 -68.4454 TS 55 12 352
1866242N14307 1866 18 NA NA NOT_NAMED 1866-09-02 18:00:00 TS 28.0000 -68.5000 main 885 885 _____________O -1 28.0000 -68.5000 TS 55 12 356
1866242N14307 1866 18 NA NA NOT_NAMED 1866-09-02 21:00:00 TS 28.5575 -68.5429 main 942 942 _____________P -1 28.5575 -68.5429 TS 57 11 355
1866242N14307 1866 18 NA NA NOT_NAMED 1866-09-03 00:00:00 TS 29.1000 -68.6000 main 970 918 _____________O -1 29.1000 -68.6000 TS 60 11 350
1866242N14307 1866 18 NA NA NOT_NAMED 1866-09-03 03:00:00 TS 29.6501 -68.7644 main 911 867 _____________P -1 29.6501 -68.7644 TS 60 11 347
1866242N14307 1866 18 NA NA NOT_NAMED 1866-09-03 06:00:00 TS 30.2000 -68.9000 main 867 826 _____________O -1 30.2000 -68.9000 TS 60 11 350
1866242N14307 1866 18 NA NA NOT_NAMED 1866-09-03 09:00:00 TS 30.6969 -68.9680 main 826 796 _____________P -1 30.6969 -68.9680 TS 60 11 5
1866242N14307 1866 18 NA NA NOT_NAMED 1866-09-03 12:00:00 TS 31.3000 -68.8000 main 796 778 _____________O -1 31.3000 -68.8000 TS 60 16 23
1866242N14307 1866 18 NA NA NOT_NAMED 1866-09-03 15:00:00 TS 32.1558 -68.2345 main 782 776 _____________P -1 32.1558 -68.2345 TS 62 21 31
1866242N14307 1866 18 NA NA NOT_NAMED 1866-09-03 18:00:00 TS 33.1000 -67.5000 main 791 786 _____________O -1 33.1000 -67.5000 HU 65 22 31
1866242N14307 1866 18 NA NA NOT_NAMED 1866-09-03 21:00:00 TS 34.0319 -66.9000 main 807 804 _____________P -1 34.0319 -66.9000 HU 65 20 30
1866242N14307 1866 18 NA NA NOT_NAMED 1866-09-04 00:00:00 TS 34.8000 -66.3000 main 832 810 _____________O -1 34.8000 -66.3000 HU 65 16 41
1866242N14307 1866 18 NA NA NOT_NAMED 1866-09-04 03:00:00 TS 35.2173 -65.6478 main 818 808 _____________P -1 35.2173 -65.6478 HU 65 13 57
1866242N14307 1866 18 NA NA NOT_NAMED 1866-09-04 06:00:00 TS 35.5000 -65.0000 main 814 801 _____________O -1 35.5000 -65.0000 HU 65 12 56
1866242N14307 1866 18 NA NA NOT_NAMED 1866-09-04 09:00:00 TS 35.8841 -64.4213 main 806 798 _____________P -1 35.8841 -64.4213 HU 65 13 51
1866242N14307 1866 18 NA NA NOT_NAMED 1866-09-04 12:00:00 TS 36.3000 -63.8000 main 803 777 _____________O -1 36.3000 -63.8000 HU 65 14 53
1866242N14307 1866 18 NA NA NOT_NAMED 1866-09-04 15:00:00 TS 36.7347 -63.0442 main 781 748 _____________P -1 36.7347 -63.0442 HU 67 16 55
1866242N14307 1866 18 NA NA NOT_NAMED 1866-09-04 18:00:00 TS 37.2000 -62.2000 main 748 723 _____________O -1 37.2000 -62.2000 HU 70 17 55
1866242N14307 1866 18 NA NA NOT_NAMED 1866-09-04 21:00:00 TS 37.6998 -61.3073 main 727 714 _____________P -1 37.6998 -61.3073 HU 70 17 55
1866242N14307 1866 18 NA NA NOT_NAMED 1866-09-05 00:00:00 TS 38.2000 -60.4000 main 718 713 _____________O -1 38.2000 -60.4000 HU 70 17 55
1866242N14307 1866 18 NA NA NOT_NAMED 1866-09-05 03:00:00 TS 38.6567 -59.5410 main 718 706 _____________P -1 38.6567 -59.5410 HU 70 16 56
1866242N14307 1866 18 NA NA NOT_NAMED 1866-09-05 06:00:00 TS 39.1000 -58.7000 main 706 675 _____________O -1 39.1000 -58.7000 HU 70 16 54
1866242N14307 1866 18 NA NA NOT_NAMED 1866-09-05 09:00:00 TS 39.5785 -57.8870 main 675 662 _____________P -1 39.5785 -57.8870 HU 70 16 56
1866242N14307 1866 18 NA NA NOT_NAMED 1866-09-05 12:00:00 TS 40.0000 -57.0000 main 667 666 _____________O -1 40.0000 -57.0000 HU 70 17 65
1866242N14307 1866 18 NA NA NOT_NAMED 1866-09-05 15:00:00 TS 40.2801 -55.9284 main 689 686 _____________P -1 40.2801 -55.9284 HU 70 17 73
1866242N14307 1866 18 NA NA NOT_NAMED 1866-09-05 18:00:00 TS 40.5000 -54.8000 main 684 656 _____________O -1 40.5000 -54.8000 HU 70 17 74
1866242N14307 1866 18 NA NA NOT_NAMED 1866-09-05 21:00:00 TS 40.7488 -53.7416 main 655 623 _____________P -1 40.7488 -53.7416 HU 70 17 73
1866242N14307 1866 18 NA NA NOT_NAMED 1866-09-06 00:00:00 TS 41.0000 -52.7000 main 623 606 _____________O -1 41.0000 -52.7000 HU 70 17 72
1866242N14307 1866 18 NA NA NOT_NAMED 1866-09-06 03:00:00 TS 41.2490 -51.6492 main 613 598 _____________P -1 41.2490 -51.6492 HU 70 17 72
1866242N14307 1866 18 NA NA NOT_NAMED 1866-09-06 06:00:00 TS 41.5000 -50.6000 main 603 598 _____________O -1 41.5000 -50.6000 HU 70 17 71
1866242N14307 1866 18 NA NA NOT_NAMED 1866-09-06 09:00:00 TS 41.7867 -49.5436 main 608 607 _____________P -1 41.7867 -49.5436 HU 67 16 72
1866242N14307 1866 18 NA NA NOT_NAMED 1866-09-06 12:00:00 TS 42.0000 -48.5000 main 632 632 _____________O -1 42.0000 -48.5000 HU 65 15 81
1866242N14307 1866 18 NA NA NOT_NAMED 1866-09-06 15:00:00 TS 42.0364 -47.4907 main 682 682 _____________P -1 42.0364 -47.4907 HU 65 15 90
1866242N14307 1866 18 NA NA NOT_NAMED 1866-09-06 18:00:00 TS 42.0000 -46.5000 main 736 736 _____________O -1 42.0000 -46.5000 HU 65 15 91
1866242N14307 1866 18 NA NA NOT_NAMED 1866-09-06 21:00:00 TS 41.9991 -45.5000 main 795 795 _____________P -1 41.9991 -45.5000 HU 65 15 90
1866242N14307 1866 18 NA NA NOT_NAMED 1866-09-07 00:00:00 TS 42.0000 -44.5000 main 857 857 _____________O -1 42.0000 -44.5000 HU 65 15 90
1866242N14307 1866 18 NA NA NOT_NAMED 1866-09-07 03:00:00 TS 41.9991 -43.5000 main 920 920 _____________P -1 41.9991 -43.5000 HU 65 15 90
1866242N14307 1866 18 NA NA NOT_NAMED 1866-09-07 06:00:00 TS 42.0000 -42.5000 main 986 986 _____________O -1 42.0000 -42.5000 HU 65 15 91
1866242N14307 1866 18 NA NA NOT_NAMED 1866-09-07 09:00:00 TS 41.9839 -41.5068 main 1053 1053 _____________P -1 41.9839 -41.5068 HU 65 15 90
1866242N14307 1866 18 NA NA NOT_NAMED 1866-09-07 12:00:00 TS 42.0000 -40.5000 main 1122 1122 _____________O -1 42.0000 -40.5000 HU 65 15 86
1866242N14307 1866 18 NA NA NOT_NAMED 1866-09-07 15:00:00 TS 42.0918 -39.4583 main 1186 1186 _____________P -1 42.0918 -39.4583 HU 65 16 83
1866242N14307 1866 18 NA NA NOT_NAMED 1866-09-07 18:00:00 TS 42.2000 -38.4000 main 1258 1258 _____________O -1 42.2000 -38.4000 HU 65 15 84
1866242N14307 1866 18 NA NA NOT_NAMED 1866-09-07 21:00:00 TS 42.2554 -37.3868 main 1322 1322 _____________P -1 42.2554 -37.3868 HU 65 16 86
1866242N14307 1866 18 NA NA NOT_NAMED 1866-09-08 00:00:00 TS 42.3000 -36.3000 main 1399 1399 _____________O -1 42.3000 -36.3000 HU 65 17 87
1866242N14307 1866 18 NA NA NOT_NAMED 1866-09-08 03:00:00 TS 42.3495 -35.0448 main 1492 1487 _____________P -1 42.3495 -35.0448 HU 65 19 87
1866242N14307 1866 18 NA NA NOT_NAMED 1866-09-08 06:00:00 TS 42.4000 -33.7000 main 1581 1581 _____________O -1 42.4000 -33.7000 HU 65 21 88
1866242N14307 1866 18 NA NA NOT_NAMED 1866-09-08 09:00:00 TS 42.4227 -32.1995 main 1690 1690 _____________P -1 42.4227 -32.1995 HU 65 20 87
1866242N14307 1866 18 NA NA NOT_NAMED 1866-09-08 12:00:00 TS 42.5000 -31.0000 main 1761 1725 _____________O -1 42.5000 -31.0000 HU 65 12 76
1866242N14307 1866 18 NA NA NOT_NAMED 1866-09-08 15:00:00 TS 42.7171 -30.5494 main 1717 1705 _____________P -1 42.7171 -30.5494 HU 65 7 41
1866242N14307 1866 18 NA NA NOT_NAMED 1866-09-08 18:00:00 TS 43.0000 -30.4000 main 1705 1678 _____________O -1 43.0000 -30.4000 HU 65 6 34
1866242N14307 1866 18 NA NA NOT_NAMED 1866-09-08 21:00:00 TS 43.2500 -30.0499 main 1669 1643 _____________P -1 43.2500 -30.0499 HU 65 7 46
1866242N14307 1866 18 NA NA NOT_NAMED 1866-09-09 00:00:00 TS 43.5000 -29.7000 main 1643 1617 _____________O -1 43.5000 -29.7000 HU 65 7 44
1866242N14307 1866 18 NA NA NOT_NAMED 1866-09-09 03:00:00 TS 43.7499 -29.3922 main 1617 1591 _____________P -1 43.7499 -29.3922 HU 65 7 41
1866242N14307 1866 18 NA NA NOT_NAMED 1866-09-09 06:00:00 TS 44.0000 -29.1000 main 1591 1566 _____________O -1 44.0000 -29.1000 HU 65 6 42
1866242N14307 1866 18 NA NA NOT_NAMED 1866-09-09 09:00:00 TS 44.2199 -28.7993 main 1566 1541 _____________P -1 44.2199 -28.7993 HU 62 7 41
1866242N14307 1866 18 NA NA NOT_NAMED 1866-09-09 12:00:00 ET 44.5000 -28.5000 main 1541 1511 _____________O -1 44.5000 -28.5000 EX 60 8 32
1866242N14307 1866 18 NA NA NOT_NAMED 1866-09-09 15:00:00 ET 44.9200 -28.1927 main 1511 1459 _____________P -1 44.9200 -28.1927 EX 60 10 25
1866242N14307 1866 18 NA NA NOT_NAMED 1866-09-09 18:00:00 ET 45.4000 -27.9000 main 1459 1421 _____________O -1 45.4000 -27.9000 EX 60 10 22
1866242N14307 1866 18 NA NA NOT_NAMED 1866-09-09 21:00:00 ET 45.8498 -27.6492 main 1415 1371 _____________P -1 45.8498 -27.6492 EX 60 10 21
1866242N14307 1866 18 NA NA NOT_NAMED 1866-09-10 00:00:00 ET 46.3000 -27.4000 main 1371 1328 _____________O -1 46.3000 -27.4000 EX 60 10 23
1866242N14307 1866 18 NA NA NOT_NAMED 1866-09-10 03:00:00 ET 46.7575 -27.1000 main 1322 1280 _____________P -1 46.7575 -27.1000 EX 60 10 25
1866242N14307 1866 18 NA NA NOT_NAMED 1866-09-10 06:00:00 ET 47.2000 -26.8000 main 1280 1246 _____________O -1 47.2000 -26.8000 EX 60 9 25
1866242N14307 1866 18 NA NA NOT_NAMED 1866-09-10 09:00:00 ET 47.5773 -26.5487 main 1239 1206 _____________P -1 47.5773 -26.5487 EX 60 9 23
1866242N14307 1866 18 NA NA NOT_NAMED 1866-09-10 12:00:00 ET 48.0000 -26.3000 main 1206 1162 _____________O -1 48.0000 -26.3000 EX 60 11 20
1866242N14307 1866 18 NA NA NOT_NAMED 1866-09-10 15:00:00 ET 48.5775 -26.0004 main 1157 1111 _____________P -1 48.5775 -26.0004 EX 60 13 18
1866242N14307 1866 18 NA NA NOT_NAMED 1866-09-10 18:00:00 ET 49.2000 -25.7000 main 1111 1077 _____________O -1 49.2000 -25.7000 EX 60 12 17
1866242N14307 1866 18 NA NA NOT_NAMED 1866-09-10 21:00:00 ET 49.7573 -25.4488 main 1067 1036 _____________P -1 49.7573 -25.4488 EX 60 11 16
1866242N14307 1866 18 NA NA NOT_NAMED 1866-09-11 00:00:00 ET 50.3000 -25.2000 main 1036 1001 _____________O -1 50.3000 -25.2000 EX 60 11 18
1866242N14307 1866 18 NA NA NOT_NAMED 1866-09-11 03:00:00 ET 50.8500 -24.9071 main 1001 967 _____________P -1 50.8500 -24.9071 EX 60 12 19
1866242N14307 1866 18 NA NA NOT_NAMED 1866-09-11 06:00:00 ET 51.4000 -24.6000 main 967 938 _____________O -1 51.4000 -24.6000 EX 60 12 19
1866242N14307 1866 18 NA NA NOT_NAMED 1866-09-11 09:00:00 ET 51.9501 -24.2988 main 937 912 _____________P -1 51.9501 -24.2988 EX 60 12 19
1866242N14307 1866 18 NA NA NOT_NAMED 1866-09-11 12:00:00 ET 52.5000 -24.0000 main 912 _____________O -1 52.5000 -24.0000 EX 60 12 18

About IBTrACS Database

This database is a web-friendly format of International Best Track Archive for Climate Stewardship (IBTrACS), a global best track data archive curated by NOAA dating back to 1842.

Updated: 2021-12-03